Time;durP1;ratioP1;P1;durP2;ratioP2;P2;SDS_P1;SDS_P2;PMS_P1;PMS_P2;Temp;Humidity;BMP_temperature;BMP_pressure;BME280_temperature;BME280_humidity;BME280_pressure;Samples;Min_cycle;Max_cycle;Signal;HPM_P1;HPM_P2
2022/03/01 00:01:58;;;;;;;1.70;0.65;;;2.50;74.60;;;;;;5093685;28;20051;-73
2022/03/01 00:04:24;;;;;;;2.45;0.70;;;2.50;74.60;;;;;;5113288;28;20036;-73
2022/03/01 00:06:50;;;;;;;1.95;0.88;;;2.50;74.70;;;;;;5115324;28;20031;-72
2022/03/01 00:09:16;;;;;;;1.23;0.60;;;2.50;74.60;;;;;;5096794;28;20048;-72
2022/03/01 00:11:41;;;;;;;0.93;0.60;;;2.50;74.60;;;;;;5115223;28;20043;-73
2022/03/01 00:14:08;;;;;;;1.75;0.70;;;2.30;74.60;;;;;;5115184;28;20495;-73
2022/03/01 00:16:34;;;;;;;1.13;0.70;;;2.40;74.70;;;;;;5115120;28;20130;-73
2022/03/01 00:19:00;;;;;;;1.55;0.90;;;2.30;74.70;;;;;;5096598;28;20481;-75
2022/03/01 00:21:28;;;;;;;1.23;0.65;;;2.30;74.80;;;;;;5096881;28;20038;-73
2022/03/01 00:23:53;;;;;;;0.90;0.40;;;2.20;74.80;;;;;;5114948;28;20035;-73
2022/03/01 00:26:19;;;;;;;2.70;0.82;;;2.30;74.90;;;;;;5115031;28;20385;-73
2022/03/01 00:28:45;;;;;;;0.82;0.68;;;2.30;74.90;;;;;;5114928;28;20043;-73
2022/03/01 00:31:11;;;;;;;2.15;0.75;;;2.20;75.60;;;;;;5097351;28;20519;-72
2022/03/01 00:33:37;;;;;;;1.38;0.70;;;2.20;75.00;;;;;;5115230;28;20389;-73
2022/03/01 00:36:03;;;;;;;1.25;0.60;;;2.10;75.10;;;;;;5114850;28;20079;-73
2022/03/01 00:38:29;;;;;;;1.55;0.70;;;2.20;75.10;;;;;;5096572;28;20043;-74
2022/03/01 00:40:55;;;;;;;1.02;0.65;;;2.20;75.00;;;;;;5096274;28;20044;-73
2022/03/01 00:43:22;;;;;;;1.50;0.65;;;2.10;74.90;;;;;;5114607;28;20043;-73
2022/03/01 00:45:49;;;;;;;1.75;0.50;;;2.10;75.00;;;;;;5096497;28;20047;-73
2022/03/01 00:48:15;;;;;;;0.75;0.32;;;2.00;75.10;;;;;;5114800;28;20065;-74
2022/03/01 00:50:40;;;;;;;1.85;0.77;;;2.00;75.20;;;;;;5079611;28;20082;-73
2022/03/01 00:53:06;;;;;;;0.98;0.60;;;2.00;75.20;;;;;;5114472;28;20607;-73
2022/03/01 00:55:32;;;;;;;0.95;0.80;;;2.00;75.30;;;;;;5095973;28;20396;-73
2022/03/01 00:57:58;;;;;;;0.63;0.52;;;2.00;75.30;;;;;;5114289;28;20076;-73
2022/03/01 01:00:24;;;;;;;0.70;0.57;;;2.00;75.20;;;;;;5096167;28;20106;-73
2022/03/01 01:02:50;;;;;;;0.50;0.47;;;2.10;75.20;;;;;;5114809;28;20039;-73
2022/03/01 01:05:16;;;;;;;0.60;0.43;;;2.00;75.10;;;;;;5114792;28;20119;-73
2022/03/01 01:07:42;;;;;;;0.55;0.50;;;2.00;75.10;;;;;;5114556;28;20032;-73
2022/03/01 01:10:09;;;;;;;1.08;0.75;;;2.00;75.20;;;;;;5095980;28;20047;-73
2022/03/01 01:12:35;;;;;;;0.95;0.50;;;2.00;75.10;;;;;;5079321;28;20116;-73
2022/03/01 01:15:01;;;;;;;1.10;0.63;;;2.00;75.20;;;;;;5095755;28;20471;-73
2022/03/01 01:17:27;;;;;;;0.88;0.50;;;2.00;75.20;;;;;;5079328;28;20051;-73
2022/03/01 01:19:53;;;;;;;0.52;0.47;;;2.00;75.20;;;;;;5114521;28;20092;-73
2022/03/01 01:25:00;;;;;;;0.50;0.50;;;2.00;75.20;;;;;;5114118;28;20036;-72
2022/03/01 01:27:26;;;;;;;0.93;0.65;;;2.00;75.10;;;;;;5095908;28;20265;-73
2022/03/01 01:29:52;;;;;;;1.08;0.63;;;2.10;75.10;;;;;;5096174;28;20052;-73
2022/03/01 01:32:18;;;;;;;0.57;0.40;;;2.10;75.10;;;;;;5095630;28;20050;-73
2022/03/01 01:34:43;;;;;;;1.33;0.70;;;2.00;75.00;;;;;;5095614;28;20485;-73
2022/03/01 01:37:09;;;;;;;0.88;0.50;;;2.00;75.70;;;;;;5114278;28;20043;-73
2022/03/01 01:39:35;;;;;;;0.60;0.43;;;2.00;75.10;;;;;;5079096;28;20047;-73
2022/03/01 01:42:01;;;;;;;0.43;0.43;;;2.00;75.10;;;;;;5095730;28;20051;-72
2022/03/01 01:44:29;;;;;;;0.93;0.52;;;2.00;75.10;;;;;;5095401;28;20039;-72
2022/03/01 01:46:55;;;;;;;0.88;0.60;;;1.90;75.10;;;;;;5114124;28;20077;-72
2022/03/01 01:49:21;;;;;;;0.80;0.50;;;2.00;75.20;;;;;;5113535;28;20036;-73
2022/03/01 01:51:46;;;;;;;0.98;0.50;;;1.90;75.20;;;;;;5113435;28;20036;-73
2022/03/01 01:54:13;;;;;;;0.75;0.40;;;1.80;75.30;;;;;;5113766;28;20039;-73
2022/03/01 01:56:39;;;;;;;0.45;0.40;;;1.80;75.40;;;;;;5095610;28;20512;-74
2022/03/01 01:59:05;;;;;;;1.25;0.60;;;1.80;75.50;;;;;;5113433;28;20073;-74
2022/03/01 02:01:30;;;;;;;0.93;0.52;;;1.70;75.50;;;;;;5113809;28;20047;-73
2022/03/01 02:03:56;;;;;;;0.70;0.55;;;1.70;75.60;;;;;;5114051;28;20036;-72
2022/03/01 02:06:22;;;;;;;0.85;0.50;;;1.70;75.60;;;;;;5113391;28;20039;-72
2022/03/01 02:08:47;;;;;;;1.08;0.50;;;1.70;75.70;;;;;;5095855;28;20558;-73
2022/03/01 02:11:14;;;;;;;0.80;0.50;;;1.70;75.60;;;;;;5113310;28;20048;-73
2022/03/01 02:13:40;;;;;;;1.48;0.60;;;1.70;75.70;;;;;;5094951;28;20118;-73
2022/03/01 02:16:06;;;;;;;1.10;0.50;;;1.60;75.70;;;;;;5095133;28;20047;-73
2022/03/01 02:18:32;;;;;;;0.30;0.30;;;1.60;75.80;;;;;;5113267;28;20035;-74
2022/03/01 02:20:58;;;;;;;0.55;0.40;;;1.60;75.80;;;;;;5094866;28;20074;-73
2022/03/01 02:23:23;;;;;;;0.98;0.50;;;1.60;75.90;;;;;;5077796;28;20086;-73
2022/03/01 02:25:49;;;;;;;1.05;0.68;;;1.50;75.90;;;;;;5112995;28;20040;-73
2022/03/01 02:28:15;;;;;;;0.75;0.50;;;1.50;76.00;;;;;;5112086;28;20135;-73
2022/03/01 02:30:40;;;;;;;1.40;0.60;;;1.40;76.00;;;;;;5112997;28;20085;-73
2022/03/01 02:33:07;;;;;;;2.22;0.90;;;1.40;76.10;;;;;;5094689;28;20040;-73
2022/03/01 02:35:33;;;;;;;1.65;0.90;;;1.40;76.10;;;;;;5112798;28;20385;-73
2022/03/01 02:37:59;;;;;;;4.72;1.42;;;1.40;76.20;;;;;;5112931;28;20043;-74
2022/03/01 02:40:24;;;;;;;1.80;0.88;;;1.40;76.20;;;;;;5094693;28;20036;-73
2022/03/01 02:42:50;;;;;;;2.70;1.27;;;1.40;76.30;;;;;;5113084;28;20449;-73
2022/03/01 02:45:18;;;;;;;2.95;1.25;;;1.30;76.30;;;;;;5113026;28;20044;-73
2022/03/01 02:47:44;;;;;;;2.30;1.02;;;1.30;76.40;;;;;;5094507;28;20405;-73
2022/03/01 02:50:12;;;;;;;2.15;0.77;;;1.30;76.40;;;;;;5112991;28;20047;-73
2022/03/01 02:52:38;;;;;;;2.45;0.80;;;1.30;76.50;;;;;;5094274;28;20401;-73
2022/03/01 02:55:06;;;;;;;2.53;0.98;;;1.30;76.60;;;;;;5113007;28;20028;-73
2022/03/01 02:57:32;;;;;;;3.92;1.15;;;1.20;76.50;;;;;;5094986;28;20032;-73
2022/03/01 02:59:58;;;;;;;2.78;1.15;;;1.20;76.50;;;;;;5112886;28;20493;-73
2022/03/01 03:02:25;;;;;;;2.58;0.90;;;1.30;76.60;;;;;;5112828;28;20039;-73
2022/03/01 03:04:51;;;;;;;5.05;1.58;;;1.30;76.60;;;;;;5110930;28;20077;-73
2022/03/01 03:07:18;;;;;;;3.17;1.38;;;1.20;76.60;;;;;;5112654;28;20044;-73
2022/03/01 03:09:45;;;;;;;4.13;1.30;;;1.20;76.70;;;;;;5112972;28;20099;-73
2022/03/01 03:12:12;;;;;;;4.30;1.55;;;1.20;76.60;;;;;;5113048;28;20123;-73
2022/03/01 03:14:38;;;;;;;5.05;1.30;;;1.20;76.70;;;;;;5095003;28;20040;-73
2022/03/01 03:17:05;;;;;;;4.63;1.38;;;1.30;76.70;;;;;;5112785;28;20031;-72
2022/03/01 03:19:32;;;;;;;2.55;1.10;;;1.20;76.60;;;;;;5112428;28;20047;-72
2022/03/01 03:21:58;;;;;;;4.45;1.40;;;1.30;76.60;;;;;;5112774;28;20493;-72
2022/03/01 03:24:24;;;;;;;3.78;1.48;;;1.20;76.50;;;;;;5112182;28;20044;-72
2022/03/01 03:26:50;;;;;;;4.60;1.30;;;1.20;76.50;;;;;;5112257;28;20040;-72
2022/03/01 03:29:18;;;;;;;3.83;1.08;;;1.30;76.60;;;;;;5094080;28;20578;-72
2022/03/01 03:31:44;;;;;;;2.33;0.85;;;1.30;76.60;;;;;;5112093;28;20070;-73
2022/03/01 03:34:10;;;;;;;3.63;1.10;;;1.30;76.60;;;;;;5112396;28;20055;-73
2022/03/01 03:36:38;;;;;;;1.63;0.73;;;1.20;76.60;;;;;;5112333;28;20036;-73
2022/03/01 03:39:08;;;;;;;2.60;1.10;;;1.20;76.60;;;;;;5114704;28;20044;-73
2022/03/01 03:41:34;;;;;;;2.42;1.10;;;1.20;76.60;;;;;;5115849;28;20396;-73
2022/03/01 03:44:00;;;;;;;1.95;0.98;;;1.20;76.60;;;;;;5080581;28;20044;-73
2022/03/01 03:46:26;;;;;;;3.03;1.08;;;1.20;76.70;;;;;;5097450;28;20088;-73
2022/03/01 03:48:52;;;;;;;3.10;1.38;;;1.30;76.80;;;;;;5116120;28;20047;-73
2022/03/01 03:51:19;;;;;;;2.45;1.13;;;1.30;76.70;;;;;;5115670;28;20036;-73
2022/03/01 03:53:45;;;;;;;4.57;1.85;;;1.40;76.70;;;;;;5115589;28;20050;-73
2022/03/01 03:56:11;;;;;;;3.40;1.67;;;1.30;76.60;;;;;;5097694;28;20039;-73
2022/03/01 03:58:36;;;;;;;3.00;1.33;;;1.40;76.70;;;;;;5115418;28;20042;-73
2022/03/01 04:01:03;;;;;;;3.63;1.40;;;1.40;76.70;;;;;;5115241;28;20405;-73
2022/03/01 04:03:29;;;;;;;2.35;1.00;;;1.40;76.60;;;;;;5115464;28;20214;-73
2022/03/01 04:05:55;;;;;;;3.03;1.27;;;1.40;76.50;;;;;;5097360;28;20054;-73
2022/03/01 04:08:21;;;;;;;3.58;1.10;;;1.50;76.50;;;;;;5115050;28;20032;-73
2022/03/01 04:10:47;;;;;;;2.70;0.98;;;1.50;76.50;;;;;;5096979;28;20420;-73
2022/03/01 04:13:12;;;;;;;2.70;1.10;;;1.50;76.40;;;;;;5115267;28;20043;-73
2022/03/01 04:15:38;;;;;;;2.15;0.82;;;1.50;76.40;;;;;;5115230;28;20114;-73
2022/03/01 04:18:04;;;;;;;1.08;0.75;;;1.60;76.40;;;;;;5114948;28;20040;-72
2022/03/01 04:20:30;;;;;;;3.35;1.00;;;1.60;76.40;;;;;;5096812;28;20074;-73
2022/03/01 04:22:57;;;;;;;2.80;1.13;;;1.60;76.40;;;;;;5096923;28;20080;-73
2022/03/01 04:25:23;;;;;;;2.60;1.02;;;1.60;76.30;;;;;;5115046;28;20035;-73
2022/03/01 04:27:49;;;;;;;2.03;0.88;;;1.80;77.00;;;;;;5114811;28;20526;-73
2022/03/01 04:30:15;;;;;;;2.00;0.90;;;1.70;76.30;;;;;;5096498;28;20047;-73
2022/03/01 04:32:42;;;;;;;1.35;0.73;;;1.70;76.30;;;;;;5115083;28;20489;-73
2022/03/01 04:35:10;;;;;;;2.45;1.00;;;1.80;76.40;;;;;;5096491;28;20050;-73
2022/03/01 04:37:38;;;;;;;1.75;0.63;;;1.70;76.20;;;;;;5115064;28;20063;-73
2022/03/01 04:40:06;;;;;;;1.55;0.60;;;1.70;76.30;;;;;;5115345;28;20048;-73
2022/03/01 04:42:31;;;;;;;0.95;0.60;;;1.70;76.30;;;;;;5096932;28;20047;-73
2022/03/01 04:44:57;;;;;;;0.65;0.50;;;1.70;76.40;;;;;;5114772;28;20028;-73
2022/03/01 04:47:23;;;;;;;1.75;0.75;;;1.70;76.40;;;;;;5079621;28;20039;-73
2022/03/01 04:49:49;;;;;;;1.10;0.57;;;1.60;76.50;;;;;;5114254;28;20050;-73
2022/03/01 04:52:15;;;;;;;1.35;0.80;;;1.60;76.60;;;;;;5096238;28;20050;-73
2022/03/01 04:54:40;;;;;;;2.40;1.00;;;1.70;76.70;;;;;;5114653;28;20031;-73
2022/03/01 04:57:06;;;;;;;2.35;1.10;;;1.70;76.70;;;;;;5114537;28;20039;-73
2022/03/01 04:59:32;;;;;;;0.93;0.68;;;1.70;76.70;;;;;;5114833;28;20039;-73
2022/03/01 05:01:58;;;;;;;0.82;0.57;;;1.70;76.70;;;;;;5114352;28;20044;-73
2022/03/01 05:04:24;;;;;;;1.08;0.70;;;1.60;76.70;;;;;;5114616;28;20050;-73
2022/03/01 05:06:51;;;;;;;2.63;0.77;;;1.60;76.80;;;;;;5114942;28;20505;-73
2022/03/01 05:09:17;;;;;;;1.70;0.80;;;1.60;76.90;;;;;;5096895;28;20089;-73
2022/03/01 05:11:43;;;;;;;1.85;0.90;;;1.60;77.00;;;;;;5096083;28;20052;-73
2022/03/01 05:14:08;;;;;;;1.80;0.70;;;1.60;77.00;;;;;;5114544;28;20035;-72
2022/03/01 05:16:34;;;;;;;2.42;0.77;;;1.70;77.00;;;;;;5079143;28;20104;-73
2022/03/01 05:19:00;;;;;;;1.60;0.80;;;1.60;76.90;;;;;;5114722;28;20096;-73
2022/03/01 05:21:26;;;;;;;1.88;0.90;;;1.70;76.90;;;;;;5114712;28;20446;-73
2022/03/01 05:23:52;;;;;;;2.25;1.08;;;1.70;76.90;;;;;;5096197;28;20090;-73
2022/03/01 05:26:18;;;;;;;1.50;0.70;;;1.60;76.80;;;;;;5114667;28;20043;-73
2022/03/01 05:28:44;;;;;;;1.75;0.85;;;1.70;76.80;;;;;;5079392;28;20043;-73
2022/03/01 05:31:10;;;;;;;1.70;0.60;;;1.70;76.80;;;;;;5114481;28;20393;-73
2022/03/01 05:33:36;;;;;;;1.15;0.68;;;1.80;76.90;;;;;;5114114;28;20039;-73
2022/03/01 05:36:03;;;;;;;1.63;0.75;;;1.70;76.80;;;;;;5114390;28;20038;-73
2022/03/01 05:38:28;;;;;;;1.92;0.85;;;1.80;76.80;;;;;;5079029;28;20043;-73
2022/03/01 05:40:54;;;;;;;0.75;0.65;;;1.70;76.90;;;;;;5114203;28;20040;-73
2022/03/01 05:43:20;;;;;;;1.85;0.80;;;1.70;76.80;;;;;;5114516;28;20043;-73
2022/03/01 05:45:46;;;;;;;0.95;0.70;;;1.80;76.90;;;;;;5095665;28;20073;-73
2022/03/01 05:48:11;;;;;;;1.60;0.65;;;1.70;77.00;;;;;;5096039;28;20047;-73
2022/03/01 05:50:37;;;;;;;1.00;0.60;;;1.70;77.00;;;;;;5095602;28;20400;-73
2022/03/01 05:53:03;;;;;;;1.45;0.60;;;1.80;77.00;;;;;;5113795;28;20559;-73
2022/03/01 05:55:29;;;;;;;1.85;0.90;;;1.80;77.00;;;;;;5113740;28;20044;-73
2022/03/01 05:57:55;;;;;;;1.30;0.68;;;1.80;77.00;;;;;;5114259;28;20524;-73
2022/03/01 06:00:21;;;;;;;0.73;0.60;;;1.80;76.90;;;;;;5114210;28;20043;-73
2022/03/01 06:02:49;;;;;;;1.60;0.77;;;1.80;76.90;;;;;;5112496;28;20485;-73
2022/03/01 06:05:16;;;;;;;0.75;0.60;;;1.80;76.90;;;;;;5114056;28;20073;-73
2022/03/01 06:07:42;;;;;;;1.40;0.80;;;1.90;76.90;;;;;;5113463;28;20508;-73
2022/03/01 06:10:09;;;;;;;1.13;0.73;;;1.90;76.80;;;;;;5113951;28;20119;-73
2022/03/01 06:12:35;;;;;;;1.17;0.57;;;1.90;76.80;;;;;;5095658;28;20405;-72
2022/03/01 06:15:01;;;;;;;1.90;0.75;;;1.90;76.80;;;;;;5114081;28;20039;-73
2022/03/01 06:17:27;;;;;;;1.98;0.88;;;2.00;76.80;;;;;;5114185;28;20438;-73
2022/03/01 06:19:53;;;;;;;0.98;0.70;;;2.00;76.70;;;;;;5095356;28;20133;-73
2022/03/01 06:22:20;;;;;;;1.35;0.80;;;2.00;76.60;;;;;;5113462;28;20048;-73
2022/03/01 06:24:46;;;;;;;1.40;0.73;;;2.00;76.50;;;;;;5095302;28;20102;-73
2022/03/01 06:27:12;;;;;;;0.68;0.65;;;2.00;76.50;;;;;;5113278;28;20032;-74
2022/03/01 06:29:38;;;;;;;1.52;0.80;;;2.00;76.50;;;;;;5094989;28;20150;-73
2022/03/01 06:32:05;;;;;;;1.17;0.70;;;2.10;76.50;;;;;;5113274;28;20152;-73
2022/03/01 06:34:31;;;;;;;2.03;0.98;;;2.10;76.50;;;;;;5094784;28;20040;-73
2022/03/01 06:36:58;;;;;;;1.42;0.93;;;2.10;77.10;;;;;;5113255;28;20489;-73
2022/03/01 06:39:24;;;;;;;1.02;0.82;;;2.10;76.50;;;;;;5094791;28;20047;-73
2022/03/01 06:41:50;;;;;;;2.15;0.82;;;2.10;76.40;;;;;;5061242;28;20043;-73
2022/03/01 06:44:17;;;;;;;0.80;0.60;;;2.10;76.40;;;;;;5113147;28;20052;-72
2022/03/01 06:46:43;;;;;;;2.05;1.00;;;2.20;76.50;;;;;;5094930;28;20374;-72
2022/03/01 06:49:09;;;;;;;1.25;0.70;;;2.10;76.40;;;;;;5112741;28;20089;-72
2022/03/01 06:51:35;;;;;;;1.55;0.88;;;2.20;76.50;;;;;;5094656;28;20047;-73
2022/03/01 06:54:00;;;;;;;1.00;0.68;;;2.20;76.50;;;;;;5113182;28;20036;-73
2022/03/01 06:56:27;;;;;;;1.15;0.70;;;2.20;76.50;;;;;;5094669;28;20477;-72
2022/03/01 06:58:53;;;;;;;1.20;0.75;;;2.20;76.50;;;;;;5112832;28;20039;-72
2022/03/01 07:01:20;;;;;;;1.23;0.75;;;2.30;76.60;;;;;;5113413;28;20118;-73
2022/03/01 07:03:46;;;;;;;0.93;0.63;;;2.30;76.50;;;;;;5078315;28;20039;-73
2022/03/01 07:06:12;;;;;;;0.63;0.55;;;2.30;76.40;;;;;;5112721;28;20036;-72
2022/03/01 07:08:37;;;;;;;1.52;0.70;;;2.30;76.40;;;;;;5113159;28;20048;-73
2022/03/01 07:11:03;;;;;;;0.70;0.60;;;2.30;76.30;;;;;;5094528;28;20184;-72
2022/03/01 07:13:29;;;;;;;0.68;0.52;;;2.30;76.30;;;;;;5064041;28;20035;-73
2022/03/01 07:15:55;;;;;;;0.63;0.60;;;2.30;76.30;;;;;;5119610;28;20039;-73
2022/03/01 07:18:21;;;;;;;1.92;0.93;;;2.40;76.30;;;;;;5100995;28;20039;-72
2022/03/01 07:20:47;;;;;;;2.38;0.90;;;2.50;76.30;;;;;;5119412;28;20542;-72
2022/03/01 07:23:13;;;;;;;1.17;0.60;;;2.50;76.30;;;;;;5119418;28;20102;-72
2022/03/01 07:25:39;;;;;;;1.20;0.70;;;2.60;76.20;;;;;;5119137;28;20054;-72
2022/03/01 07:28:05;;;;;;;1.00;0.55;;;2.70;76.20;;;;;;5084059;28;20078;-72
2022/03/01 07:30:31;;;;;;;1.00;0.52;;;2.70;76.10;;;;;;5119347;27;20073;-72
2022/03/01 07:32:58;;;;;;;1.15;0.60;;;2.80;76.00;;;;;;5100585;28;20067;-72
2022/03/01 07:35:25;;;;;;;0.80;0.68;;;2.90;75.90;;;;;;5119238;28;20040;-72
2022/03/01 07:37:51;;;;;;;1.33;0.80;;;2.90;75.80;;;;;;5119165;28;20032;-72
2022/03/01 07:40:20;;;;;;;1.40;0.70;;;3.00;75.70;;;;;;5119320;28;20040;-73
2022/03/01 07:42:46;;;;;;;0.90;0.70;;;3.10;75.60;;;;;;5101382;28;20043;-72
2022/03/01 07:45:12;;;;;;;1.67;0.73;;;3.10;75.50;;;;;;5100665;28;20085;-72
2022/03/01 07:47:38;;;;;;;1.15;0.73;;;3.20;75.40;;;;;;5119063;28;20045;-72
2022/03/01 07:50:06;;;;;;;0.75;0.55;;;3.30;75.30;;;;;;5083803;28;20055;-72
2022/03/01 07:52:31;;;;;;;0.68;0.50;;;3.40;75.20;;;;;;5083910;28;20035;-72
2022/03/01 07:54:57;;;;;;;1.80;1.00;;;3.40;75.10;;;;;;5100687;28;20434;-72
2022/03/01 07:57:23;;;;;;;0.90;0.70;;;3.60;75.10;;;;;;5083841;28;20035;-72
2022/03/01 07:59:49;;;;;;;0.80;0.70;;;3.50;75.00;;;;;;5100690;28;20040;-72
2022/03/01 08:02:14;;;;;;;0.73;0.70;;;3.60;74.90;;;;;;5101039;28;20122;-73
2022/03/01 08:04:41;;;;;;;2.10;0.98;;;3.60;74.90;;;;;;5118908;28;20085;-73
2022/03/01 08:07:09;;;;;;;1.27;0.63;;;3.70;74.90;;;;;;5118941;28;20035;-72
2022/03/01 08:09:36;;;;;;;2.13;0.95;;;3.70;74.90;;;;;;5118729;28;20126;-73
2022/03/01 08:12:04;;;;;;;1.77;0.80;;;3.80;74.90;;;;;;5084329;28;20044;-73
2022/03/01 08:14:31;;;;;;;1.08;0.70;;;3.80;74.90;;;;;;5083609;28;20527;-73
2022/03/01 08:16:58;;;;;;;1.98;1.10;;;3.90;75.00;;;;;;5101176;28;20085;-73
2022/03/01 08:19:24;;;;;;;1.40;0.77;;;3.90;75.00;;;;;;5100796;28;20089;-73
2022/03/01 08:21:49;;;;;;;1.95;0.90;;;4.00;75.00;;;;;;5119200;28;20092;-72
2022/03/01 08:24:15;;;;;;;1.88;1.10;;;4.00;74.90;;;;;;5099153;28;20044;-73
2022/03/01 08:26:41;;;;;;;1.88;1.00;;;4.00;74.90;;;;;;5096709;28;20039;-72
2022/03/01 08:29:07;;;;;;;1.85;1.30;;;4.00;74.90;;;;;;5115327;28;20051;-72
2022/03/01 08:31:33;;;;;;;3.22;0.90;;;4.10;74.90;;;;;;5115170;28;20050;-72
2022/03/01 08:33:59;;;;;;;1.73;1.00;;;4.10;74.80;;;;;;5115425;28;20031;-72
2022/03/01 08:36:26;;;;;;;2.25;1.15;;;4.20;74.80;;;;;;5115299;28;20042;-73
2022/03/01 08:38:53;;;;;;;1.25;0.90;;;4.30;74.80;;;;;;5115309;28;20043;-73
2022/03/01 08:41:18;;;;;;;1.20;0.73;;;4.40;74.70;;;;;;5115039;28;20047;-73
2022/03/01 08:43:45;;;;;;;2.33;1.17;;;4.50;74.50;;;;;;5115037;28;20046;-73
2022/03/01 08:46:12;;;;;;;2.63;1.30;;;4.60;74.50;;;;;;5115647;28;20074;-73
2022/03/01 08:48:38;;;;;;;1.15;0.88;;;4.60;74.30;;;;;;5115328;28;20543;-73
2022/03/01 08:51:05;;;;;;;2.38;1.25;;;4.70;74.20;;;;;;5096765;28;20036;-72
2022/03/01 08:53:32;;;;;;;2.22;0.93;;;4.80;74.10;;;;;;5096477;28;20069;-73
2022/03/01 08:55:59;;;;;;;0.75;0.55;;;4.80;74.00;;;;;;5079955;28;20489;-73
2022/03/01 08:58:25;;;;;;;2.03;0.88;;;4.80;74.00;;;;;;5096476;28;20040;-73
2022/03/01 09:00:51;;;;;;;1.23;0.80;;;4.90;74.00;;;;;;5079532;28;20496;-73
2022/03/01 09:03:17;;;;;;;1.48;1.10;;;5.10;74.10;;;;;;5114713;28;20093;-72
2022/03/01 09:05:43;;;;;;;1.38;1.00;;;5.10;74.00;;;;;;5079569;28;20049;-72
2022/03/01 09:08:12;;;;;;;2.17;1.00;;;5.10;74.00;;;;;;5114696;28;20039;-73
2022/03/01 09:10:39;;;;;;;1.75;0.80;;;5.20;73.90;;;;;;5114678;28;20071;-73
2022/03/01 09:13:05;;;;;;;1.27;0.80;;;5.20;73.90;;;;;;5079562;28;20044;-73
2022/03/01 09:15:31;;;;;;;1.00;0.70;;;5.30;73.80;;;;;;5114451;28;20036;-73
2022/03/01 09:17:58;;;;;;;0.75;0.50;;;5.40;73.80;;;;;;5096049;28;20036;-73
2022/03/01 09:20:25;;;;;;;1.90;0.98;;;5.50;73.80;;;;;;5096084;28;20055;-73
2022/03/01 09:22:52;;;;;;;1.67;0.90;;;5.60;73.70;;;;;;5114331;28;20048;-73
2022/03/01 09:25:18;;;;;;;1.15;0.75;;;5.60;73.60;;;;;;5114291;28;20044;-73
2022/03/01 09:27:44;;;;;;;1.85;0.90;;;5.80;73.60;;;;;;5095958;28;20396;-73
2022/03/01 09:30:11;;;;;;;1.77;0.98;;;5.80;73.40;;;;;;5114016;28;20050;-73
2022/03/01 09:32:37;;;;;;;1.77;1.00;;;5.90;74.00;;;;;;5114204;28;20122;-73
2022/03/01 09:35:03;;;;;;;2.42;1.13;;;6.00;73.30;;;;;;5114487;28;20115;-73
2022/03/01 09:37:31;;;;;;;1.13;0.88;;;6.10;73.30;;;;;;5095904;28;20035;-73
2022/03/01 09:39:59;;;;;;;1.75;0.88;;;6.20;73.20;;;;;;5080122;28;20035;-73
2022/03/01 09:42:26;;;;;;;2.08;0.90;;;6.30;73.20;;;;;;5096388;28;20481;-73
2022/03/01 09:44:54;;;;;;;2.22;1.10;;;6.30;73.20;;;;;;5114406;28;20047;-73
2022/03/01 09:47:20;;;;;;;1.45;0.93;;;6.40;73.20;;;;;;5096749;28;20061;-73
2022/03/01 09:49:45;;;;;;;2.25;1.08;;;6.40;73.10;;;;;;5097286;28;20043;-73
2022/03/01 09:52:12;;;;;;;3.00;1.10;;;6.50;73.20;;;;;;5097475;28;20138;-73
2022/03/01 09:54:38;;;;;;;2.40;1.17;;;6.50;73.10;;;;;;5114374;28;20039;-73
2022/03/01 09:57:04;;;;;;;2.45;1.27;;;6.60;73.10;;;;;;5079244;28;20127;-72
2022/03/01 09:59:30;;;;;;;2.72;1.30;;;6.70;73.00;;;;;;5113874;28;20040;-73
2022/03/01 10:01:55;;;;;;;1.65;1.00;;;6.80;73.00;;;;;;5095552;28;20046;-73
2022/03/01 10:04:21;;;;;;;1.95;1.10;;;6.90;73.00;;;;;;5113931;28;20035;-73
2022/03/01 10:06:49;;;;;;;1.90;1.20;;;7.00;72.80;;;;;;5113635;28;20051;-73
2022/03/01 10:09:18;;;;;;;1.65;1.05;;;7.10;72.80;;;;;;5113630;28;20040;-72
2022/03/01 10:11:44;;;;;;;1.48;1.00;;;7.20;72.70;;;;;;5095265;28;20564;-72
2022/03/01 10:14:11;;;;;;;2.08;1.10;;;7.30;72.60;;;;;;5113409;28;20063;-73
2022/03/01 10:16:40;;;;;;;1.88;1.10;;;7.40;72.40;;;;;;5113342;28;20118;-73
2022/03/01 10:19:11;;;;;;;1.75;1.08;;;7.60;72.30;;;;;;5095215;28;20101;-73
2022/03/01 10:21:37;;;;;;;1.85;0.88;;;7.70;72.10;;;;;;5093647;28;20035;-72
2022/03/01 10:24:08;;;;;;;2.20;1.20;;;7.80;72.00;;;;;;5095109;28;20399;-73
2022/03/01 10:26:37;;;;;;;1.17;0.80;;;8.00;71.80;;;;;;5078843;28;20039;-73
2022/03/01 10:29:06;;;;;;;2.38;1.25;;;8.10;71.50;;;;;;5095249;28;20097;-73
2022/03/01 10:31:34;;;;;;;2.42;1.10;;;8.20;71.40;;;;;;5094994;28;20135;-73
2022/03/01 10:34:07;;;;;;;2.58;1.25;;;8.30;71.30;;;;;;5094937;28;20035;-74
2022/03/01 10:36:36;;;;;;;2.20;1.20;;;8.30;71.20;;;;;;5112936;28;20151;-73
2022/03/01 10:39:09;;;;;;;1.75;1.15;;;8.40;71.30;;;;;;5113398;28;20082;-73
2022/03/01 10:41:37;;;;;;;2.38;1.15;;;8.40;71.90;;;;;;5113221;28;20044;-73
2022/03/01 10:44:04;;;;;;;2.72;1.13;;;8.40;71.40;;;;;;5094819;28;20044;-73
2022/03/01 10:46:37;;;;;;;2.10;1.17;;;8.50;71.30;;;;;;5113178;28;20397;-73
2022/03/01 10:49:23;;;;;;;2.03;1.08;;;8.60;71.30;;;;;;5112699;28;20208;-73
2022/03/01 10:51:51;;;;;;;1.83;0.98;;;8.70;71.20;;;;;;5113057;28;20051;-73
2022/03/01 10:54:34;;;;;;;3.38;1.35;;;8.70;71.20;;;;;;5078325;28;20365;-73
2022/03/01 10:57:02;;;;;;;1.95;1.17;;;8.90;71.20;;;;;;5112897;28;20042;-73
2022/03/01 10:59:31;;;;;;;2.63;1.48;;;9.00;71.00;;;;;;5112912;28;20437;-73
2022/03/01 11:01:57;;;;;;;1.75;1.20;;;9.00;71.00;;;;;;5112780;28;20043;-73
2022/03/01 11:04:25;;;;;;;1.88;1.17;;;9.00;70.90;;;;;;5112728;28;20113;-73
2022/03/01 11:06:53;;;;;;;1.88;0.95;;;9.10;71.00;;;;;;5094633;28;20173;-72
2022/03/01 11:09:24;;;;;;;2.42;1.25;;;9.20;70.90;;;;;;5094481;28;20127;-73
2022/03/01 11:11:51;;;;;;;1.85;1.20;;;9.30;70.70;;;;;;5112725;28;20040;-73
2022/03/01 11:14:24;;;;;;;1.90;1.27;;;9.40;70.80;;;;;;5112533;28;20104;-73
2022/03/01 11:17:15;;;;;;;1.92;1.23;;;9.40;70.80;;;;;;5078357;28;20040;-73
2022/03/01 11:20:10;;;;;;;1.65;1.15;;;9.40;70.80;;;;;;5081159;28;20400;-73
2022/03/01 11:22:50;;;;;;;1.30;0.98;;;9.50;70.70;;;;;;5098125;28;20059;-73
2022/03/01 11:25:23;;;;;;;1.52;1.00;;;9.60;70.70;;;;;;5093965;28;20079;-73
2022/03/01 11:27:51;;;;;;;1.55;1.05;;;9.70;70.60;;;;;;5111317;28;20050;-73
2022/03/01 11:30:25;;;;;;;1.90;1.20;;;9.70;70.40;;;;;;5077359;28;20043;-74
2022/03/01 11:32:56;;;;;;;1.98;1.10;;;9.80;70.40;;;;;;5095644;28;20073;-73
2022/03/01 11:35:25;;;;;;;1.95;1.27;;;9.90;70.30;;;;;;5094713;28;20043;-73
2022/03/01 11:38:10;;;;;;;1.58;1.00;;;9.90;70.20;;;;;;5112386;28;20127;-73
2022/03/01 11:40:43;;;;;;;1.85;1.20;;;9.90;70.20;;;;;;5111367;28;20040;-73
2022/03/01 11:43:15;;;;;;;2.30;1.20;;;9.90;70.40;;;;;;5093917;28;20040;-73
2022/03/01 11:45:47;;;;;;;2.65;1.30;;;10.00;70.40;;;;;;5094400;28;20044;-73
2022/03/01 11:48:17;;;;;;;2.25;1.33;;;10.00;70.40;;;;;;5112195;28;20040;-73
2022/03/01 11:50:45;;;;;;;1.45;1.00;;;10.00;70.30;;;;;;5112309;28;20039;-73
2022/03/01 11:53:14;;;;;;;1.38;1.17;;;10.00;70.30;;;;;;5094013;28;20040;-73
2022/03/01 11:55:43;;;;;;;2.15;1.50;;;10.00;70.30;;;;;;5112364;28;20511;-73
2022/03/01 11:58:11;;;;;;;1.60;1.10;;;10.00;70.30;;;;;;5093873;28;20044;-73
2022/03/01 12:00:39;;;;;;;2.50;1.10;;;10.20;70.40;;;;;;5113796;28;20516;-73
2022/03/01 12:03:09;;;;;;;2.05;1.15;;;10.20;70.20;;;;;;5097861;28;20134;-73
2022/03/01 12:05:36;;;;;;;2.25;1.27;;;10.20;70.10;;;;;;5114236;28;20047;-73
2022/03/01 12:08:05;;;;;;;1.73;1.30;;;10.30;70.20;;;;;;5097295;28;20126;-73
2022/03/01 12:10:31;;;;;;;1.98;1.27;;;10.30;70.20;;;;;;5115930;28;20044;-73
2022/03/01 12:12:57;;;;;;;2.30;1.30;;;10.40;70.20;;;;;;5115796;28;20545;-73
2022/03/01 12:15:35;;;;;;;2.35;1.30;;;10.50;70.10;;;;;;5115372;28;20047;-73
2022/03/01 12:18:17;;;;;;;2.60;1.35;;;10.50;69.90;;;;;;5081897;28;20040;-72
2022/03/01 12:20:46;;;;;;;2.15;1.27;;;10.60;69.80;;;;;;5116568;28;20051;-73
2022/03/01 12:23:24;;;;;;;2.72;1.30;;;10.70;69.70;;;;;;5098082;28;20044;-73
2022/03/01 12:25:50;;;;;;;1.95;1.17;;;10.80;69.60;;;;;;5113957;28;20126;-73
2022/03/01 12:28:16;;;;;;;2.15;1.30;;;10.90;69.40;;;;;;5097105;28;20070;-73
2022/03/01 12:30:44;;;;;;;1.95;1.27;;;10.90;69.20;;;;;;5115220;28;20482;-73
2022/03/01 12:33:13;;;;;;;2.00;1.20;;;10.90;69.30;;;;;;5115453;28;20126;-73
2022/03/01 12:35:40;;;;;;;1.15;1.02;;;11.00;69.10;;;;;;5115042;28;20035;-73
2022/03/01 12:38:09;;;;;;;2.50;1.30;;;11.20;69.20;;;;;;5115228;28;20112;-73
2022/03/01 12:40:37;;;;;;;2.08;1.25;;;11.20;69.10;;;;;;5096896;28;20485;-73
2022/03/01 12:43:05;;;;;;;3.30;1.25;;;11.30;69.00;;;;;;5115124;28;20036;-73
2022/03/01 12:45:35;;;;;;;2.00;1.40;;;11.40;68.90;;;;;;5061161;28;20496;-73
2022/03/01 12:48:02;;;;;;;2.38;1.27;;;11.50;68.80;;;;;;5115111;28;20051;-73
2022/03/01 12:50:29;;;;;;;3.10;1.63;;;11.40;68.60;;;;;;5097202;28;20040;-73
2022/03/01 12:52:57;;;;;;;2.60;1.50;;;11.40;68.60;;;;;;5096565;28;20040;-72
2022/03/01 12:55:23;;;;;;;2.80;1.65;;;11.50;68.60;;;;;;5114849;28;20436;-73
2022/03/01 12:57:51;;;;;;;2.92;1.55;;;11.60;68.70;;;;;;5114786;28;20118;-72